Shikarpur Weather



Shikarpur's Current Weather

Temprature 16o haze

haze

Rain: 0 %

Min Temprature16o
Max Temprature16o
Humidity82
Wind Speed1.16 m/h
Sun Rise06:33:50
Sun Set17:44:23
Current Time: 28-Oct-2020 07:18:09
Lat/Lon: 27.96, 68.64




Shikarpur's Geo Location



Shikarpur's Weather Forecast

Time Overall Temp Min Temp Max Temp Humidity Wind Speed Rain
28-Oct-2020 (Wed)
08:00:00 clear sky 19.950 19.950 24.090 51 1.07 m/h 0 %
11:00:00 clear sky 29.410 29.410 33.100 26 0.67 m/h 0 %
14:00:00 clear sky 35.100 35.100 36.410 13 1.3 m/h 0 %
17:00:00 clear sky 33.170 33.170 33.310 11 0.65 m/h 0 %
20:00:00 clear sky 25.650 25.650 25.650 17 0.91 m/h 0 %
23:00:00 clear sky 23.380 23.380 23.380 20 2.01 m/h 0 %
29-Oct-2020 (Thu)
02:00:00 clear sky 21.500 21.500 21.500 22 1.14 m/h 0 %
05:00:00 clear sky 20.590 20.590 20.590 23 1.98 m/h 0 %
08:00:00 clear sky 23.710 23.710 23.710 19 1.11 m/h 0 %
11:00:00 clear sky 32.770 32.770 32.770 11 1.73 m/h 0 %
14:00:00 clear sky 36.360 36.360 36.360 8 0.45 m/h 0 %
17:00:00 clear sky 32.730 32.730 32.730 10 0.8 m/h 0 %
20:00:00 clear sky 24.780 24.780 24.780 17 0.5 m/h 0 %
23:00:00 clear sky 23.660 23.660 23.660 19 1.64 m/h 0 %
30-Oct-2020 (Fri)
02:00:00 clear sky 22.140 22.140 22.140 22 1.31 m/h 0 %
05:00:00 clear sky 20.080 20.080 20.080 25 1.24 m/h 0 %
08:00:00 clear sky 23.310 23.310 23.310 23 2.04 m/h 0 %
11:00:00 clear sky 32.700 32.700 32.700 12 1.89 m/h 0 %
14:00:00 clear sky 35.820 35.820 35.820 9 2.22 m/h 0 %
17:00:00 clear sky 33.150 33.150 33.150 11 2.68 m/h 0 %
20:00:00 clear sky 25.020 25.020 25.020 18 0.99 m/h 0 %
23:00:00 clear sky 23.290 23.290 23.290 20 1.48 m/h 0 %
31-Oct-2020 (Sat)
02:00:00 clear sky 21.990 21.990 21.990 22 0.61 m/h 0 %
05:00:00 clear sky 20.300 20.300 20.300 24 0.57 m/h 0 %
08:00:00 clear sky 24.080 24.080 24.080 19 0.75 m/h 0 %
11:00:00 clear sky 33.110 33.110 33.110 11 1.68 m/h 0 %
14:00:00 clear sky 35.620 35.620 35.620 9 2.91 m/h 0 %
17:00:00 clear sky 32.870 32.870 32.870 11 2.29 m/h 0 %
20:00:00 clear sky 24.700 24.700 24.700 18 1.85 m/h 0 %
23:00:00 clear sky 22.860 22.860 22.860 20 0.94 m/h 0 %
01-Nov-2020 (Sun)
02:00:00 clear sky 21.570 21.570 21.570 21 0.1 m/h 0 %
05:00:00 clear sky 20.280 20.280 20.280 23 0.91 m/h 0 %
08:00:00 clear sky 24.950 24.950 24.950 17 0.83 m/h 0 %
11:00:00 clear sky 33.860 33.860 33.860 10 1.43 m/h 0 %
14:00:00 clear sky 35.680 35.680 35.680 9 2.88 m/h 0 %
17:00:00 clear sky 32.870 32.870 32.870 10 2.5 m/h 0 %
20:00:00 clear sky 24.360 24.360 24.360 16 2.03 m/h 0 %
23:00:00 clear sky 21.810 21.810 21.810 19 0.73 m/h 0 %
02-Nov-2020 (Mon)
02:00:00 clear sky 20.710 20.710 20.710 20 0.96 m/h 0 %
05:00:00 clear sky 19.980 19.980 19.980 21 1.17 m/h 0 %

Famous Cities (60)